Time;durP1;ratioP1;P1;durP2;ratioP2;P2;SDS_P1;SDS_P2;PMS_P1;PMS_P2;Temp;Humidity;BMP_temperature;BMP_pressure;BME280_temperature;BME280_humidity;BME280_pressure;Samples;Min_cycle;Max_cycle;Signal;HPM_P1;HPM_P2
2022/06/04 00:00:53;;;;;;;3.53;3.33;;;;;;;17.17;61.82;100970.22;5051801;28;20203;-74
2022/06/04 00:03:20;;;;;;;4.60;3.70;;;;;;;17.16;62.22;100972.91;5052328;28;20217;-74
2022/06/04 00:05:51;;;;;;;3.90;3.70;;;;;;;17.15;62.65;100964.16;5052028;28;20231;-74
2022/06/04 00:08:18;;;;;;;3.00;2.80;;;;;;;17.17;62.30;100953.56;5052392;28;20246;-74
2022/06/04 00:16:16;;;;;;;3.43;3.13;;;;;;;16.96;61.20;100990.34;5052178;28;20214;-74
2022/06/04 00:18:43;;;;;;;3.50;2.87;;;;;;;16.97;61.84;100996.50;5051764;28;20649;-74
2022/06/04 00:21:13;;;;;;;3.10;2.90;;;;;;;16.96;61.85;100984.22;5052194;28;20987;-74
2022/06/04 00:23:40;;;;;;;2.97;2.70;;;;;;;16.93;61.47;100987.84;5051341;28;20671;-75
2022/06/04 00:26:09;;;;;;;2.77;2.57;;;;;;;16.89;62.21;100988.88;5051909;28;20228;-74
2022/06/04 00:28:37;;;;;;;2.97;2.77;;;;;;;16.87;62.65;100974.88;5051271;28;20204;-74
2022/06/04 00:31:04;;;;;;;2.57;2.37;;;;;;;16.89;61.93;100967.78;5051995;28;20211;-74
2022/06/04 00:33:31;;;;;;;3.20;2.50;;;;;;;16.82;61.64;100968.91;5052133;28;20203;-74
2022/06/04 00:35:59;;;;;;;2.20;2.00;;;;;;;16.78;61.63;100978.66;5052068;28;20216;-74
2022/06/04 00:38:29;;;;;;;2.33;2.20;;;;;;;16.71;61.60;100982.44;5051852;28;20580;-74
2022/06/04 00:41:04;;;;;;;2.20;2.10;;;;;;;16.67;61.23;100973.78;5051170;28;20261;-75
2022/06/04 00:43:32;;;;;;;2.33;2.20;;;;;;;16.61;61.52;100989.81;5052082;28;20194;-74
2022/06/04 00:47:01;;;;;;;2.50;2.40;;;;;;;16.59;61.63;100969.69;5051840;28;20242;-73
2022/06/04 00:49:27;;;;;;;2.40;2.20;;;;;;;16.52;61.40;100984.00;5051511;28;20211;-73
2022/06/04 00:51:54;;;;;;;2.30;2.10;;;;;;;16.41;61.90;100982.63;5051541;28;20497;-73
2022/06/04 00:54:22;;;;;;;3.20;2.40;;;;;;;16.33;62.09;100976.72;5051765;28;20227;-73
2022/06/04 00:57:00;;;;;;;2.30;2.10;;;;;;;16.24;62.45;100971.78;5051797;28;20255;-73
2022/06/04 00:59:38;;;;;;;2.40;2.20;;;;;;;16.26;62.18;100973.44;5051059;28;20212;-73
2022/06/04 01:02:16;;;;;;;4.00;2.47;;;;;;;16.20;62.87;100955.22;5051619;28;20282;-73
2022/06/04 01:04:50;;;;;;;2.30;2.07;;;;;;;16.15;62.74;100956.28;5051942;28;20235;-73
2022/06/04 01:07:32;;;;;;;2.87;2.67;;;;;;;16.15;62.54;100954.50;5051576;28;20229;-73
2022/06/04 01:10:21;;;;;;;2.57;2.40;;;;;;;16.08;62.83;100964.38;5031329;28;20205;-73
2022/06/04 01:12:57;;;;;;;2.70;2.30;;;;;;;16.04;63.18;100967.19;5031757;28;20238;-73
2022/06/04 01:15:38;;;;;;;2.87;1.97;;;;;;;16.05;62.82;100956.59;5031308;28;20227;-73
2022/06/04 01:18:17;;;;;;;2.40;2.10;;;;;;;16.08;62.99;100960.91;5031790;28;20270;-73
2022/06/04 01:20:53;;;;;;;3.30;2.30;;;;;;;16.06;62.81;100960.94;5031209;28;20216;-73
2022/06/04 01:23:54;;;;;;;2.60;2.40;;;;;;;16.03;63.40;100966.31;5030983;28;20227;-73
2022/06/04 01:26:45;;;;;;;2.47;2.20;;;;;;;16.04;63.38;100956.66;5047331;28;20230;-73
2022/06/04 01:29:15;;;;;;;2.37;2.20;;;;;;;16.01;63.48;100962.84;5050992;28;20219;-73
2022/06/04 01:31:48;;;;;;;2.30;2.10;;;;;;;15.92;63.99;100949.16;5051157;28;20269;-73
2022/06/04 01:34:19;;;;;;;2.53;2.30;;;;;;;15.84;64.59;100928.34;5051195;28;20639;-73
2022/06/04 01:36:51;;;;;;;1.93;1.83;;;;;;;15.83;64.30;100924.84;5051401;28;20238;-73
2022/06/04 01:39:22;;;;;;;2.80;2.50;;;;;;;15.79;64.19;100925.00;5050942;28;20738;-73
2022/06/04 01:41:53;;;;;;;2.60;2.37;;;;;;;15.69;63.98;100932.28;5051020;28;20719;-73
2022/06/04 01:44:24;;;;;;;3.17;2.20;;;;;;;15.63;64.20;100940.38;5051107;28;20222;-73
2022/06/04 01:46:55;;;;;;;2.33;2.23;;;;;;;15.63;64.32;100941.25;5051023;28;20281;-73
2022/06/04 01:49:26;;;;;;;3.27;2.00;;;;;;;15.64;64.60;100942.97;5051110;28;20245;-73
2022/06/04 01:51:56;;;;;;;3.67;2.10;;;;;;;15.65;64.52;100947.31;5051254;28;20248;-73
2022/06/04 01:54:27;;;;;;;2.30;2.20;;;;;;;15.64;64.68;100942.97;5054884;28;20277;-73
2022/06/04 01:57:02;;;;;;;2.20;2.10;;;;;;;15.63;64.54;100949.13;5054785;28;20198;-73
2022/06/04 01:59:35;;;;;;;2.50;2.30;;;;;;;15.65;64.57;100951.72;5053757;28;20723;-73
2022/06/04 02:02:04;;;;;;;2.60;2.40;;;;;;;15.60;64.74;100941.34;5054741;28;20255;-73
2022/06/04 02:04:37;;;;;;;2.70;2.50;;;;;;;15.53;64.93;100929.28;5054443;28;20780;-73
2022/06/04 02:10:00;;;;;;;2.10;2.00;;;;;;;15.42;65.75;100927.00;5054213;28;20256;-73
2022/06/04 02:12:28;;;;;;;2.53;2.33;;;;;;;15.41;65.52;100930.53;5054392;28;20230;-73
2022/06/04 02:14:55;;;;;;;2.30;2.10;;;;;;;15.39;65.34;100942.03;5054224;28;20262;-73
2022/06/04 02:17:25;;;;;;;2.40;2.20;;;;;;;15.43;65.19;100943.66;5054385;28;20539;-73
2022/06/04 02:19:52;;;;;;;2.53;2.43;;;;;;;15.43;65.10;100951.53;5054013;28;20204;-73
2022/06/04 02:22:19;;;;;;;2.63;2.40;;;;;;;15.39;65.27;100949.91;5054334;28;20208;-73
2022/06/04 02:24:46;;;;;;;3.13;2.30;;;;;;;15.41;64.56;100967.38;5054018;28;20939;-73
2022/06/04 02:27:12;;;;;;;2.27;2.17;;;;;;;15.40;65.01;100977.94;5054241;28;20408;-73
2022/06/04 02:29:41;;;;;;;6.50;2.33;;;;;;;15.40;64.81;100965.66;5053173;28;20212;-73
2022/06/04 02:32:16;;;;;;;2.10;2.00;;;;;;;15.33;66.17;100947.47;5053937;28;20884;-73
2022/06/04 02:34:51;;;;;;;2.47;2.13;;;;;;;15.27;66.80;100912.56;5053769;28;20223;-73
2022/06/04 02:37:23;;;;;;;2.87;2.40;;;;;;;15.20;67.01;100920.69;5053863;28;20562;-73
2022/06/04 02:39:56;;;;;;;2.13;1.93;;;;;;;15.06;66.86;100911.47;5053350;28;20611;-73
2022/06/04 02:42:30;;;;;;;2.00;1.80;;;;;;;15.02;67.06;100912.44;5053784;28;20288;-73
2022/06/04 02:45:05;;;;;;;2.13;2.03;;;;;;;15.02;67.16;100911.56;5053597;28;20234;-73
2022/06/04 02:47:38;;;;;;;2.50;2.30;;;;;;;15.00;67.66;100910.75;5053430;28;20231;-73
2022/06/04 02:50:13;;;;;;;2.53;2.33;;;;;;;14.93;67.46;100899.56;5053310;28;20250;-73
2022/06/04 02:52:40;;;;;;;2.70;2.50;;;;;;;14.88;67.77;100897.09;5053554;28;20203;-73
2022/06/04 02:55:12;;;;;;;2.57;2.37;;;;;;;14.74;69.11;100872.97;5053614;28;20223;-73
2022/06/04 02:57:43;;;;;;;2.20;2.10;;;;;;;14.71;68.76;100873.06;5053531;28;20207;-73
2022/06/04 03:00:13;;;;;;;2.40;2.10;;;;;;;14.73;68.77;100866.00;5052922;28;20207;-73
2022/06/04 03:02:40;;;;;;;2.20;2.10;;;;;;;14.69;68.54;100874.88;5053264;28;20199;-73
2022/06/04 03:05:10;;;;;;;3.87;2.27;;;;;;;14.69;68.28;100877.50;5053463;28;20231;-73
2022/06/04 03:07:39;;;;;;;4.63;2.30;;;;;;;14.69;68.49;100881.00;5053361;28;20230;-73
2022/06/04 03:10:12;;;;;;;2.50;2.40;;;;;;;14.62;68.25;100873.31;5052847;28;20673;-73
2022/06/04 03:12:38;;;;;;;2.50;2.30;;;;;;;14.62;68.51;100886.47;5053166;28;20207;-73
2022/06/04 03:15:06;;;;;;;2.87;2.30;;;;;;;14.57;68.80;100889.22;5053048;28;20280;-73
2022/06/04 03:17:33;;;;;;;2.20;2.10;;;;;;;14.51;69.72;100876.22;5053226;28;20221;-73
2022/06/04 03:20:00;;;;;;;2.43;2.23;;;;;;;14.53;69.89;100856.03;5053073;28;20252;-73
2022/06/04 03:22:26;;;;;;;3.17;2.87;;;;;;;14.48;70.24;100842.16;5053406;28;20207;-73
2022/06/04 03:24:53;;;;;;;2.73;2.53;;;;;;;14.39;70.21;100853.81;5052990;28;20237;-73
2022/06/04 03:27:19;;;;;;;2.10;2.00;;;;;;;14.45;69.64;100872.00;5052596;28;20306;-73
2022/06/04 03:29:46;;;;;;;2.00;1.90;;;;;;;14.45;69.25;100882.50;5051898;28;20641;-73
2022/06/04 03:32:13;;;;;;;2.47;2.27;;;;;;;14.48;69.15;100892.06;5053059;28;20296;-73
2022/06/04 03:34:40;;;;;;;3.07;2.27;;;;;;;14.41;69.01;100896.63;5052545;28;20226;-73
2022/06/04 03:37:07;;;;;;;2.40;2.30;;;;;;;14.36;69.86;100879.28;5053083;28;20202;-73
2022/06/04 03:39:33;;;;;;;2.30;2.07;;;;;;;14.36;69.30;100881.91;5052399;28;20249;-74
2022/06/04 03:42:01;;;;;;;2.10;2.00;;;;;;;14.36;69.39;100877.50;5052575;28;20684;-73
2022/06/04 03:44:27;;;;;;;2.03;1.93;;;;;;;14.36;69.88;100872.25;5052230;28;20224;-74
2022/06/04 03:46:54;;;;;;;2.50;2.30;;;;;;;14.36;69.50;100867.00;5052203;28;20665;-74
2022/06/04 03:49:21;;;;;;;2.40;2.13;;;;;;;14.38;69.24;100874.84;5052192;28;20207;-74
2022/06/04 03:51:49;;;;;;;3.47;2.17;;;;;;;14.37;69.18;100881.00;5052544;28;20210;-73
2022/06/04 03:54:16;;;;;;;2.00;1.90;;;;;;;14.36;69.11;100888.00;5052483;28;20230;-74
2022/06/04 03:56:42;;;;;;;3.33;2.07;;;;;;;14.39;69.07;100887.06;5052404;28;20213;-73
2022/06/04 03:59:09;;;;;;;2.40;2.20;;;;;;;14.41;68.64;100895.75;5052021;28;20211;-74
2022/06/04 04:01:35;;;;;;;2.27;2.10;;;;;;;14.43;68.88;100907.97;5052000;28;20208;-74
2022/06/04 04:04:02;;;;;;;1.90;1.80;;;;;;;14.38;69.85;100890.59;5052234;28;20256;-73
2022/06/04 04:06:31;;;;;;;2.17;2.07;;;;;;;14.43;69.93;100878.19;5052437;28;20208;-74
2022/06/04 04:08:59;;;;;;;2.23;2.13;;;;;;;14.48;68.32;100919.19;5051913;28;20221;-74
2022/06/04 04:11:27;;;;;;;2.37;2.17;;;;;;;14.55;66.98;100951.44;5052158;28;20637;-74
2022/06/04 04:13:55;;;;;;;2.10;2.00;;;;;;;14.52;67.01;100984.78;5052285;28;20275;-73
2022/06/04 04:16:22;;;;;;;2.40;2.00;;;;;;;14.58;65.69;100990.78;5051314;28;20823;-74
2022/06/04 04:18:49;;;;;;;2.00;1.90;;;;;;;14.63;63.71;101027.44;5051846;28;20199;-73
2022/06/04 04:21:18;;;;;;;2.00;1.90;;;;;;;14.63;64.27;101072.97;5051741;28;20617;-74
2022/06/04 04:23:45;;;;;;;2.07;1.97;;;;;;;14.61;63.69;101071.28;5052118;28;20265;-74
2022/06/04 04:26:15;;;;;;;2.63;2.37;;;;;;;14.66;63.57;101082.53;5052193;28;20331;-73
2022/06/04 04:28:42;;;;;;;2.40;2.20;;;;;;;14.70;64.37;101073.66;5051786;28;20281;-73
2022/06/04 04:31:12;;;;;;;2.20;2.10;;;;;;;14.68;64.94;101047.41;5051327;28;20203;-73
2022/06/04 04:33:39;;;;;;;2.17;2.07;;;;;;;14.72;62.91;101045.59;5051758;28;20254;-73
2022/06/04 04:36:07;;;;;;;2.07;1.97;;;;;;;14.73;62.34;101077.97;5051521;28;20290;-73
2022/06/04 04:38:33;;;;;;;2.70;2.00;;;;;;;14.74;62.88;101085.81;5051925;28;20196;-73
2022/06/04 04:40:59;;;;;;;2.03;1.90;;;;;;;14.77;62.28;101105.94;5051164;28;20207;-73
2022/06/04 04:43:27;;;;;;;2.50;2.30;;;;;;;14.84;61.55;101112.72;5051701;28;20211;-73
2022/06/04 04:46:01;;;;;;;1.90;1.80;;;;;;;14.89;61.72;101110.88;5051558;28;20229;-73
2022/06/04 04:48:28;;;;;;;1.90;1.80;;;;;;;14.87;62.44;101120.56;5051848;28;20215;-73
2022/06/04 04:50:54;;;;;;;2.10;1.90;;;;;;;14.87;62.62;101113.53;5051452;28;20202;-73
2022/06/04 04:53:20;;;;;;;1.97;1.83;;;;;;;14.88;61.94;101117.00;5051834;28;20203;-73
2022/06/04 04:55:48;;;;;;;1.80;1.70;;;;;;;14.85;63.40;101114.47;5051426;28;20235;-73
2022/06/04 04:58:14;;;;;;;2.20;2.00;;;;;;;14.89;62.07;101114.34;5051680;28;20208;-73
2022/06/04 05:00:42;;;;;;;2.47;2.13;;;;;;;14.97;61.08;101150.09;5051201;28;20218;-73
2022/06/04 05:03:09;;;;;;;2.10;2.00;;;;;;;14.98;60.61;101160.56;5051571;28;20260;-73
2022/06/04 05:05:35;;;;;;;1.90;1.80;;;;;;;15.00;60.74;101173.66;5051859;28;20239;-73
2022/06/04 05:08:02;;;;;;;2.03;1.93;;;;;;;14.99;59.46;101178.06;5051472;28;20229;-72
2022/06/04 05:10:29;;;;;;;1.80;1.70;;;;;;;15.02;58.44;101204.25;5051425;28;20603;-73
2022/06/04 05:12:57;;;;;;;1.80;1.70;;;;;;;14.98;60.60;101210.50;5051471;28;20237;-73
2022/06/04 05:15:24;;;;;;;2.60;1.80;;;;;;;15.06;59.36;101191.91;5051481;28;20231;-73
2022/06/04 05:17:52;;;;;;;1.87;1.77;;;;;;;15.11;59.45;101195.31;5051098;28;20202;-73
2022/06/04 05:20:19;;;;;;;2.20;2.00;;;;;;;15.15;57.42;101220.63;5051145;28;20555;-73
2022/06/04 05:22:46;;;;;;;2.00;1.50;;;;;;;15.16;57.29;101253.88;5051755;28;20211;-73
2022/06/04 05:25:13;;;;;;;1.73;1.63;;;;;;;15.20;57.50;101270.47;5051203;28;20223;-73
2022/06/04 05:27:39;;;;;;;1.70;1.60;;;;;;;15.25;57.89;101253.66;5052760;28;20220;-74
2022/06/04 05:30:07;;;;;;;1.77;1.67;;;;;;;15.24;57.06;101259.84;5054315;28;20216;-73
2022/06/04 05:32:33;;;;;;;3.67;2.13;;;;;;;15.28;56.71;101250.09;5055422;28;20273;-73
2022/06/04 05:35:02;;;;;;;1.80;1.70;;;;;;;15.29;57.38;101254.47;5055420;28;20227;-73
2022/06/04 05:37:28;;;;;;;1.23;1.23;;;;;;;15.35;58.22;101256.06;5055252;28;20210;-73
2022/06/04 05:39:55;;;;;;;1.83;1.50;;;;;;;15.43;57.45;101256.72;5055046;28;20202;-73
2022/06/04 05:42:21;;;;;;;1.60;1.50;;;;;;;15.51;57.57;101251.28;5054164;28;20592;-73
2022/06/04 05:44:48;;;;;;;2.20;1.67;;;;;;;15.57;57.72;101262.50;5054407;28;20304;-73
2022/06/04 05:47:14;;;;;;;1.67;1.57;;;;;;;15.59;56.46;101268.56;5054737;28;20697;-73
2022/06/04 05:49:40;;;;;;;1.53;1.43;;;;;;;15.58;56.02;101301.06;5054659;28;20207;-73
2022/06/04 05:52:08;;;;;;;1.80;1.70;;;;;;;15.59;56.06;101333.50;5055144;28;20266;-73
2022/06/04 05:54:35;;;;;;;1.53;1.43;;;;;;;15.59;55.61;101346.66;5054539;28;20227;-73
2022/06/04 05:57:02;;;;;;;1.80;1.70;;;;;;;15.64;57.30;101358.81;5054775;28;20237;-73
2022/06/04 05:59:28;;;;;;;1.87;1.77;;;;;;;15.69;56.96;101325.31;5054532;28;20211;-74
2022/06/04 06:01:54;;;;;;;2.00;1.80;;;;;;;15.67;56.76;101307.84;5054252;28;20661;-73
2022/06/04 06:04:25;;;;;;;1.77;1.67;;;;;;;15.68;56.06;101315.72;5054605;28;20281;-73
2022/06/04 06:06:52;;;;;;;1.73;1.50;;;;;;;15.68;56.75;101351.72;5054569;28;20192;-73
2022/06/04 06:09:23;;;;;;;1.80;1.70;;;;;;;15.71;57.42;101335.81;5053933;28;20231;-74
2022/06/04 06:11:51;;;;;;;1.60;1.50;;;;;;;15.70;57.59;101310.44;5053196;28;20561;-74
2022/06/04 06:14:17;;;;;;;1.80;1.70;;;;;;;15.72;57.23;101305.09;5054359;28;20227;-73
2022/06/04 06:16:46;;;;;;;1.83;1.60;;;;;;;15.77;56.90;101337.47;5053935;28;20206;-73
2022/06/04 06:19:14;;;;;;;1.60;1.30;;;;;;;15.79;56.96;101331.25;5053932;28;20816;-73
2022/06/04 06:21:41;;;;;;;1.80;1.30;;;;;;;15.84;56.25;101339.06;5054224;28;20257;-74
2022/06/04 06:24:09;;;;;;;1.70;1.60;;;;;;;15.87;56.10;101360.00;5054053;28;20315;-73
2022/06/04 06:26:44;;;;;;;1.53;1.43;;;;;;;15.93;55.34;101366.91;5053972;28;20211;-74
2022/06/04 06:29:10;;;;;;;1.70;1.60;;;;;;;15.98;55.21;101380.81;5054022;28;20222;-73
2022/06/04 06:31:37;;;;;;;1.73;1.60;;;;;;;16.00;54.75;101392.19;5053401;28;20719;-73
2022/06/04 06:34:03;;;;;;;1.60;1.50;;;;;;;16.02;54.38;101411.44;5054158;28;20224;-73
2022/06/04 06:36:30;;;;;;;1.60;1.50;;;;;;;16.04;55.32;101428.91;5053991;28;20210;-73
2022/06/04 06:38:57;;;;;;;2.30;1.50;;;;;;;16.05;54.99;101428.03;5053487;28;20202;-74
2022/06/04 06:41:25;;;;;;;3.27;1.60;;;;;;;16.12;54.60;101431.34;5053187;28;20570;-74
2022/06/04 06:43:53;;;;;;;1.90;1.80;;;;;;;16.16;53.87;101421.59;5054136;28;20197;-74
2022/06/04 06:46:23;;;;;;;2.43;1.70;;;;;;;16.19;54.52;101425.00;5053527;28;20254;-74
2022/06/04 06:48:53;;;;;;;9.83;1.70;;;;;;;16.22;53.63;101438.09;5053506;28;20208;-74
2022/06/04 06:51:23;;;;;;;1.50;1.40;;;;;;;16.27;54.51;101451.16;5053483;28;20743;-74
2022/06/04 06:53:49;;;;;;;1.60;1.50;;;;;;;16.30;53.74;101451.09;5053879;28;20293;-74
2022/06/04 06:56:17;;;;;;;1.70;1.60;;;;;;;16.34;53.72;101470.31;5053732;28;20204;-74
2022/06/04 06:58:45;;;;;;;2.00;1.73;;;;;;;16.37;53.65;101468.47;5053576;28;20231;-74
2022/06/04 07:01:13;;;;;;;1.90;1.37;;;;;;;16.41;54.22;101470.13;5053262;28;20211;-74
2022/06/04 07:03:41;;;;;;;1.50;1.40;;;;;;;16.45;53.27;101473.50;5053489;28;20203;-74
2022/06/04 07:06:09;;;;;;;1.53;1.40;;;;;;;16.51;52.85;101472.47;5053377;28;20258;-74
2022/06/04 07:08:36;;;;;;;1.53;1.43;;;;;;;16.52;53.06;101504.06;5053390;28;20228;-74
2022/06/04 07:11:03;;;;;;;1.77;1.50;;;;;;;16.60;53.94;101486.28;5053067;28;20204;-74
2022/06/04 07:13:30;;;;;;;1.50;1.40;;;;;;;16.66;52.50;101472.94;5053039;28;20680;-74
2022/06/04 07:15:56;;;;;;;1.30;1.20;;;;;;;16.74;52.49;101508.78;5052765;28;20285;-73
2022/06/04 07:18:24;;;;;;;1.40;1.30;;;;;;;16.78;51.66;101513.91;5053280;28;20208;-74
2022/06/04 07:20:51;;;;;;;1.50;1.40;;;;;;;16.82;52.03;101531.41;5053039;28;20208;-74
2022/06/04 07:23:18;;;;;;;1.30;1.20;;;;;;;16.88;51.63;101510.13;5053000;28;20208;-74
2022/06/04 07:25:46;;;;;;;1.70;1.57;;;;;;;16.94;51.21;101539.91;5052640;28;20250;-75
2022/06/04 07:28:14;;;;;;;1.50;1.40;;;;;;;16.97;51.16;101534.56;5050999;28;20242;-74
2022/06/04 07:30:40;;;;;;;1.83;1.40;;;;;;;17.01;51.42;101537.06;5051943;28;20563;-74
2022/06/04 07:33:07;;;;;;;1.33;1.23;;;;;;;17.02;51.37;101540.53;5052848;28;20258;-74
2022/06/04 07:35:35;;;;;;;2.17;1.13;;;;;;;17.07;51.16;101547.44;5052584;28;20231;-74
2022/06/04 07:38:01;;;;;;;1.53;1.27;;;;;;;17.15;51.35;101539.28;5052551;28;20674;-74
2022/06/04 07:40:28;;;;;;;4.20;3.90;;;;;;;17.13;51.89;101509.47;5052180;28;20238;-74
2022/06/04 07:42:55;;;;;;;1.80;1.30;;;;;;;17.23;51.16;101521.47;5044541;28;20258;-74
2022/06/04 07:45:22;;;;;;;1.50;1.20;;;;;;;17.31;50.61;101512.47;5042419;28;20224;-74
2022/06/04 07:47:48;;;;;;;1.40;1.30;;;;;;;17.32;49.88;101520.31;5041133;28;20200;-74
2022/06/04 07:50:15;;;;;;;1.37;1.27;;;;;;;17.37;51.47;101528.13;5041415;28;20224;-74
2022/06/04 07:52:42;;;;;;;1.90;1.43;;;;;;;17.40;51.34;101534.19;5042629;28;20198;-74
2022/06/04 07:55:10;;;;;;;1.30;1.20;;;;;;;17.44;51.21;101508.53;5043719;28;20231;-74
2022/06/04 07:57:38;;;;;;;1.50;1.40;;;;;;;17.49;51.36;101506.63;5041961;28;20291;-74
2022/06/04 08:00:08;;;;;;;2.30;1.37;;;;;;;17.54;50.63;101496.81;5048984;28;20216;-74
2022/06/04 08:02:34;;;;;;;6.90;1.60;;;;;;;17.59;51.51;101518.63;5045126;28;20201;-74
2022/06/04 08:05:00;;;;;;;2.70;1.30;;;;;;;17.66;52.01;101514.03;5041237;28;20224;-74
2022/06/04 08:07:27;;;;;;;1.43;1.10;;;;;;;17.71;51.35;101514.75;5042614;28;20609;-74
2022/06/04 08:09:55;;;;;;;1.40;1.30;;;;;;;17.75;50.32;101536.63;5042055;28;20298;-74
2022/06/04 08:12:22;;;;;;;1.80;1.20;;;;;;;17.80;49.50;101548.78;5042341;28;20197;-74
2022/06/04 08:14:48;;;;;;;1.30;1.20;;;;;;;17.78;48.41;101582.31;5040179;28;20737;-74
2022/06/04 08:17:15;;;;;;;1.10;1.00;;;;;;;17.77;50.70;101624.63;5041357;28;20565;-74
2022/06/04 08:19:42;;;;;;;1.87;1.30;;;;;;;17.85;50.73;101591.78;5042172;28;20606;-74
2022/06/04 08:22:10;;;;;;;2.00;1.30;;;;;;;17.93;49.02;101565.13;5042237;28;20548;-74
2022/06/04 08:24:36;;;;;;;1.13;1.03;;;;;;;17.97;48.30;101601.13;5041321;28;20224;-74
2022/06/04 08:27:05;;;;;;;1.13;1.07;;;;;;;18.02;48.75;101646.78;5040120;28;20315;-74
2022/06/04 08:29:33;;;;;;;1.70;1.60;;;;;;;18.08;48.98;101637.78;5044456;28;20716;-74
2022/06/04 08:32:01;;;;;;;1.70;1.60;;;;;;;18.18;48.83;101638.38;5046481;28;20200;-75
2022/06/04 08:34:28;;;;;;;1.43;1.33;;;;;;;18.26;48.95;101625.78;5040095;28;20275;-74
2022/06/04 08:36:54;;;;;;;2.27;1.40;;;;;;;18.35;49.08;101641.31;5041930;28;20204;-74
2022/06/04 08:39:21;;;;;;;1.73;1.30;;;;;;;18.44;48.62;101624.31;5041650;28;20204;-74
2022/06/04 08:42:00;;;;;;;2.07;1.10;;;;;;;18.55;48.48;101616.00;5040020;28;20259;-74
2022/06/04 08:44:33;;;;;;;2.27;1.27;;;;;;;18.60;47.94;101643.19;5040004;28;20283;-74
2022/06/04 08:47:06;;;;;;;1.70;1.23;;;;;;;18.64;47.95;101640.38;5040871;28;20315;-74
2022/06/04 08:49:39;;;;;;;2.10;1.20;;;;;;;18.70;46.84;101649.03;5042369;28;20224;-73
2022/06/04 08:52:13;;;;;;;1.50;1.20;;;;;;;18.78;48.53;101662.84;5040098;28;20198;-74
2022/06/04 08:57:34;;;;;;;2.40;1.40;;;;;;;19.00;48.15;101645.34;5042292;28;20280;-74
2022/06/04 09:00:15;;;;;;;1.67;1.57;;;;;;;19.10;48.15;101622.06;5049853;28;20204;-73
2022/06/04 09:03:02;;;;;;;2.00;1.30;;;;;;;19.22;48.13;101650.75;5055211;28;20265;-74
2022/06/04 09:05:40;;;;;;;1.20;1.10;;;;;;;19.28;47.20;101651.47;5055235;28;20577;-74
2022/06/04 09:08:12;;;;;;;1.27;1.27;;;;;;;19.33;47.30;101668.91;5055522;28;20200;-74
2022/06/04 09:10:42;;;;;;;1.03;1.03;;;;;;;19.45;47.88;101657.03;5055312;28;20232;-74
2022/06/04 09:13:15;;;;;;;1.23;1.13;;;;;;;19.53;47.14;101640.84;5055470;28;20254;-74
2022/06/04 09:15:46;;;;;;;3.20;1.30;;;;;;;19.58;48.23;101682.16;5055236;28;20236;-74
2022/06/04 09:18:16;;;;;;;1.40;1.30;;;;;;;19.63;46.95;101676.66;5055242;28;20594;-74
2022/06/04 09:20:45;;;;;;;8.80;1.60;;;;;;;19.64;46.27;101695.16;5055297;28;20201;-74
2022/06/04 09:23:19;;;;;;;1.30;1.20;;;;;;;19.63;46.91;101713.75;5055468;28;20256;-74
2022/06/04 09:25:48;;;;;;;1.43;1.23;;;;;;;19.62;46.64;101702.31;5055285;28;20317;-74
2022/06/04 09:28:29;;;;;;;1.30;1.20;;;;;;;19.66;47.10;101732.16;5054602;28;20209;-74
2022/06/04 09:31:07;;;;;;;1.57;1.47;;;;;;;19.68;47.60;101701.19;5054539;28;20674;-74
2022/06/04 09:33:49;;;;;;;2.03;1.10;;;;;;;19.76;47.63;101695.63;5055001;28;20216;-74
2022/06/04 09:36:19;;;;;;;1.50;1.30;;;;;;;19.84;46.98;101698.84;5055212;28;20208;-74
2022/06/04 09:38:53;;;;;;;2.57;1.30;;;;;;;19.95;46.68;101711.72;5054943;28;20270;-74
2022/06/04 09:41:21;;;;;;;2.00;1.73;;;;;;;20.03;46.69;101705.19;5055047;28;20300;-75
2022/06/04 09:44:00;;;;;;;1.50;1.40;;;;;;;20.11;46.50;101712.00;5054656;28;20341;-74
2022/06/04 09:46:29;;;;;;;1.30;1.20;;;;;;;20.18;46.40;101710.84;5054155;28;20481;-73
2022/06/04 09:48:56;;;;;;;1.20;1.20;;;;;;;20.23;45.88;101700.91;5054184;28;20229;-73
2022/06/04 09:51:25;;;;;;;1.47;1.37;;;;;;;20.28;45.68;101721.94;5055029;28;20213;-74
2022/06/04 09:53:58;;;;;;;2.40;1.50;;;;;;;20.33;45.84;101742.06;5054750;28;20209;-73
2022/06/04 09:56:35;;;;;;;1.60;1.50;;;;;;;20.38;46.43;101741.91;5054164;28;20209;-73
2022/06/04 09:59:09;;;;;;;1.70;1.60;;;;;;;20.44;46.77;101729.25;5054320;28;20207;-73
2022/06/04 10:01:37;;;;;;;1.97;1.70;;;;;;;20.60;46.00;101728.66;5052573;28;20203;-73
2022/06/04 10:04:13;;;;;;;1.30;1.20;;;;;;;20.78;46.26;101692.56;5051921;28;20715;-73
2022/06/04 10:06:40;;;;;;;1.77;1.67;;;;;;;20.94;45.32;101714.00;5045264;28;20243;-73
2022/06/04 10:12:03;;;;;;;2.00;1.83;;;;;;;21.05;44.43;101718.84;5034346;28;20282;-73
2022/06/04 10:14:32;;;;;;;2.17;1.50;;;;;;;21.01;45.47;101750.88;5033552;28;20232;-73
2022/06/04 10:17:00;;;;;;;1.50;1.40;;;;;;;21.00;46.81;101708.44;5039733;28;20250;-73
2022/06/04 10:19:29;;;;;;;1.40;1.30;;;;;;;21.08;46.67;101713.44;5053886;28;20230;-73
2022/06/04 10:22:12;;;;;;;3.03;1.50;;;;;;;21.25;46.06;101721.53;5054328;28;20295;-73
2022/06/04 10:24:49;;;;;;;1.63;1.53;;;;;;;21.37;44.46;101731.63;5053893;28;20287;-73
2022/06/04 10:27:36;;;;;;;1.60;1.50;;;;;;;21.47;44.71;101757.84;5033639;28;20206;-75
2022/06/04 10:30:14;;;;;;;1.57;1.40;;;;;;;21.50;45.25;101753.22;5043964;28;20221;-73
2022/06/04 10:32:57;;;;;;;1.93;1.77;;;;;;;21.55;44.88;101716.69;5053436;28;20644;-73
2022/06/04 10:35:36;;;;;;;1.40;1.30;;;;;;;21.68;44.46;101748.03;5053820;28;20229;-73
2022/06/04 10:38:14;;;;;;;2.53;2.30;;;;;;;21.57;44.45;101732.59;5047362;28;20255;-73
2022/06/04 10:40:52;;;;;;;1.97;1.87;;;;;;;21.68;47.02;101732.09;5043903;28;20245;-73
2022/06/04 10:43:35;;;;;;;1.70;1.60;;;;;;;21.82;43.68;101727.00;5049706;28;20255;-73
2022/06/04 10:46:14;;;;;;;1.73;1.63;;;;;;;21.85;46.35;101787.16;5053491;28;20237;-73
2022/06/04 10:48:58;;;;;;;1.47;1.43;;;;;;;21.91;45.29;101729.25;5051505;28;20214;-73
2022/06/04 10:51:37;;;;;;;6.80;6.30;;;;;;;21.89;44.12;101755.06;5053081;28;20202;-73
2022/06/04 10:54:09;;;;;;;2.13;1.93;;;;;;;21.81;46.14;101752.75;5053572;28;20228;-73
2022/06/04 10:56:44;;;;;;;1.80;1.60;;;;;;;21.91;46.53;101710.66;5053814;28;20200;-73
2022/06/04 10:59:19;;;;;;;4.97;1.60;;;;;;;22.02;45.89;101696.84;5053386;28;20221;-73
2022/06/04 11:01:50;;;;;;;1.87;1.77;;;;;;;22.18;45.19;101711.16;5044767;28;20975;-73
2022/06/04 11:04:31;;;;;;;5.03;1.93;;;;;;;22.34;44.24;101731.75;5053700;28;20236;-73
2022/06/04 11:07:03;;;;;;;1.97;1.77;;;;;;;22.47;44.93;101771.94;5053879;28;20190;-73
2022/06/04 11:09:36;;;;;;;2.10;2.00;;;;;;;22.63;44.26;101751.63;5052933;28;20205;-73
2022/06/04 11:12:13;;;;;;;2.03;1.93;;;;;;;22.87;46.32;101756.69;5053288;28;20202;-73
2022/06/04 11:14:45;;;;;;;1.77;1.67;;;;;;;23.12;46.59;101701.25;5053488;28;20240;-73
2022/06/04 11:17:19;;;;;;;1.93;1.63;;;;;;;23.43;45.35;101721.00;5052910;28;20581;-74
2022/06/04 11:19:55;;;;;;;1.60;1.50;;;;;;;23.69;43.60;101734.75;5052837;28;20204;-75
2022/06/04 11:22:28;;;;;;;1.87;1.70;;;;;;;23.83;44.15;101780.22;5053114;28;20201;-75
2022/06/04 11:25:02;;;;;;;2.00;1.80;;;;;;;23.83;42.05;101758.03;5051940;28;20227;-72
2022/06/04 11:27:35;;;;;;;2.17;1.80;;;;;;;23.93;41.17;101815.28;5052003;28;20594;-72
2022/06/04 11:30:04;;;;;;;1.70;1.60;;;;;;;24.01;40.66;101806.88;5052754;28;20241;-72
2022/06/04 11:32:38;;;;;;;2.03;1.93;;;;;;;24.13;41.65;101864.91;5052433;28;20209;-72
2022/06/04 11:35:16;;;;;;;1.70;1.60;;;;;;;24.33;40.17;101855.81;5053135;28;20233;-72
2022/06/04 11:38:13;;;;;;;2.07;1.97;;;;;;;24.73;41.50;101862.50;5053034;28;20209;-72
2022/06/04 11:40:47;;;;;;;1.80;1.70;;;;;;;25.00;39.46;101858.41;5052626;28;20571;-72
2022/06/04 11:43:23;;;;;;;3.27;2.07;;;;;;;25.16;41.43;101920.69;5052574;28;20634;-75
2022/06/04 11:46:04;;;;;;;2.20;2.10;;;;;;;25.42;38.53;101867.56;5052116;28;20707;-73
2022/06/04 11:48:45;;;;;;;2.40;2.20;;;;;;;25.51;38.36;101932.06;5052768;28;20205;-74
2022/06/04 11:51:27;;;;;;;4.07;1.93;;;;;;;25.59;40.12;101920.03;5052654;28;20210;-74
2022/06/04 11:53:57;;;;;;;1.83;1.73;;;;;;;25.79;38.07;101879.63;5052703;28;20289;-74